sensor_id;sensor_type;location;lat;lon;timestamp;temperature;humidity
51839;DHT22;37886;53.174;6.368;2022-07-23T00:00:33;14.20;99.90
51839;DHT22;37886;53.174;6.368;2022-07-23T00:02:59;14.20;99.90
51839;DHT22;37886;53.174;6.368;2022-07-23T00:05:25;14.30;99.90
51839;DHT22;37886;53.174;6.368;2022-07-23T00:07:51;14.30;99.90
51839;DHT22;37886;53.174;6.368;2022-07-23T00:10:17;14.20;99.90
51839;DHT22;37886;53.174;6.368;2022-07-23T00:12:43;14.20;99.90
51839;DHT22;37886;53.174;6.368;2022-07-23T00:15:09;14.20;99.90
51839;DHT22;37886;53.174;6.368;2022-07-23T00:17:35;14.20;99.90
51839;DHT22;37886;53.174;6.368;2022-07-23T00:20:01;14.30;99.90
51839;DHT22;37886;53.174;6.368;2022-07-23T00:22:27;14.30;99.90
51839;DHT22;37886;53.174;6.368;2022-07-23T00:24:57;14.20;99.90
51839;DHT22;37886;53.174;6.368;2022-07-23T00:27:23;14.20;99.90
51839;DHT22;37886;53.174;6.368;2022-07-23T00:29:49;14.20;99.90
51839;DHT22;37886;53.174;6.368;2022-07-23T00:32:15;14.20;99.90
51839;DHT22;37886;53.174;6.368;2022-07-23T00:34:41;14.20;99.90
51839;DHT22;37886;53.174;6.368;2022-07-23T00:37:06;14.20;99.90
51839;DHT22;37886;53.174;6.368;2022-07-23T00:39:32;14.10;99.90
51839;DHT22;37886;53.174;6.368;2022-07-23T00:41:58;14.10;99.90
51839;DHT22;37886;53.174;6.368;2022-07-23T00:44:27;14.10;99.90
51839;DHT22;37886;53.174;6.368;2022-07-23T00:46:58;14.00;99.90
51839;DHT22;37886;53.174;6.368;2022-07-23T00:49:26;13.90;99.90
51839;DHT22;37886;53.174;6.368;2022-07-23T00:51:52;13.90;99.90
51839;DHT22;37886;53.174;6.368;2022-07-23T00:54:19;13.90;99.90
51839;DHT22;37886;53.174;6.368;2022-07-23T00:56:46;13.80;99.90
51839;DHT22;37886;53.174;6.368;2022-07-23T00:59:12;13.80;99.90
51839;DHT22;37886;53.174;6.368;2022-07-23T01:01:38;13.70;99.90
51839;DHT22;37886;53.174;6.368;2022-07-23T01:04:04;13.70;99.90
51839;DHT22;37886;53.174;6.368;2022-07-23T01:06:36;13.60;99.90
51839;DHT22;37886;53.174;6.368;2022-07-23T01:09:03;13.60;99.90
51839;DHT22;37886;53.174;6.368;2022-07-23T01:11:30;13.50;99.90
51839;DHT22;37886;53.174;6.368;2022-07-23T01:13:56;13.50;99.90
51839;DHT22;37886;53.174;6.368;2022-07-23T01:16:22;13.40;99.90
51839;DHT22;37886;53.174;6.368;2022-07-23T01:18:48;13.30;99.90
51839;DHT22;37886;53.174;6.368;2022-07-23T01:21:18;13.30;99.90
51839;DHT22;37886;53.174;6.368;2022-07-23T01:23:43;13.20;99.90
51839;DHT22;37886;53.174;6.368;2022-07-23T01:26:09;13.10;99.90
51839;DHT22;37886;53.174;6.368;2022-07-23T01:28:35;13.10;99.90
51839;DHT22;37886;53.174;6.368;2022-07-23T01:31:01;13.00;99.90
51839;DHT22;37886;53.174;6.368;2022-07-23T01:33:27;13.00;99.90
51839;DHT22;37886;53.174;6.368;2022-07-23T01:35:52;13.00;99.90
51839;DHT22;37886;53.174;6.368;2022-07-23T01:38:18;13.00;99.90
51839;DHT22;37886;53.174;6.368;2022-07-23T01:40:44;12.90;99.90
51839;DHT22;37886;53.174;6.368;2022-07-23T01:43:09;12.90;99.90
51839;DHT22;37886;53.174;6.368;2022-07-23T01:45:35;12.90;99.90
51839;DHT22;37886;53.174;6.368;2022-07-23T01:48:01;12.90;99.90
51839;DHT22;37886;53.174;6.368;2022-07-23T01:50:26;12.90;99.90
51839;DHT22;37886;53.174;6.368;2022-07-23T01:52:52;12.80;99.90
51839;DHT22;37886;53.174;6.368;2022-07-23T01:55:17;12.80;99.90
51839;DHT22;37886;53.174;6.368;2022-07-23T01:57:43;12.80;99.90
51839;DHT22;37886;53.174;6.368;2022-07-23T02:00:09;12.80;99.90
51839;DHT22;37886;53.174;6.368;2022-07-23T02:02:35;12.80;99.90
51839;DHT22;37886;53.174;6.368;2022-07-23T02:05:01;12.80;99.90
51839;DHT22;37886;53.174;6.368;2022-07-23T02:07:26;12.80;99.90
51839;DHT22;37886;53.174;6.368;2022-07-23T02:09:52;12.80;99.90
51839;DHT22;37886;53.174;6.368;2022-07-23T02:12:18;12.70;99.90
51839;DHT22;37886;53.174;6.368;2022-07-23T02:14:43;12.70;99.90
51839;DHT22;37886;53.174;6.368;2022-07-23T02:17:09;12.70;99.90
51839;DHT22;37886;53.174;6.368;2022-07-23T02:19:34;12.60;99.90
51839;DHT22;37886;53.174;6.368;2022-07-23T02:22:00;12.60;99.90
51839;DHT22;37886;53.174;6.368;2022-07-23T02:24:26;12.60;99.90
51839;DHT22;37886;53.174;6.368;2022-07-23T02:26:51;12.60;99.90
51839;DHT22;37886;53.174;6.368;2022-07-23T02:29:17;12.60;99.90
51839;DHT22;37886;53.174;6.368;2022-07-23T02:31:44;12.50;99.90
51839;DHT22;37886;53.174;6.368;2022-07-23T02:34:09;12.50;99.90
51839;DHT22;37886;53.174;6.368;2022-07-23T02:36:37;12.40;99.90
51839;DHT22;37886;53.174;6.368;2022-07-23T02:39:04;12.40;99.90
51839;DHT22;37886;53.174;6.368;2022-07-23T02:41:29;12.40;99.90
51839;DHT22;37886;53.174;6.368;2022-07-23T02:43:55;12.40;99.90
51839;DHT22;37886;53.174;6.368;2022-07-23T02:46:21;12.40;99.90
51839;DHT22;37886;53.174;6.368;2022-07-23T02:48:47;12.30;99.90
51839;DHT22;37886;53.174;6.368;2022-07-23T02:51:12;12.30;99.90
51839;DHT22;37886;53.174;6.368;2022-07-23T02:53:38;12.30;99.90
51839;DHT22;37886;53.174;6.368;2022-07-23T02:56:04;12.20;99.90
51839;DHT22;37886;53.174;6.368;2022-07-23T02:58:30;12.30;99.90
51839;DHT22;37886;53.174;6.368;2022-07-23T03:00:55;12.20;99.90
51839;DHT22;37886;53.174;6.368;2022-07-23T03:03:21;12.20;99.90
51839;DHT22;37886;53.174;6.368;2022-07-23T03:05:47;12.20;99.90
51839;DHT22;37886;53.174;6.368;2022-07-23T03:08:13;12.20;99.90
51839;DHT22;37886;53.174;6.368;2022-07-23T03:10:39;12.10;99.90
51839;DHT22;37886;53.174;6.368;2022-07-23T03:13:04;12.10;99.90
51839;DHT22;37886;53.174;6.368;2022-07-23T03:15:30;12.10;99.90
51839;DHT22;37886;53.174;6.368;2022-07-23T03:17:56;12.10;99.90
51839;DHT22;37886;53.174;6.368;2022-07-23T03:20:21;12.10;99.90
51839;DHT22;37886;53.174;6.368;2022-07-23T03:22:47;12.10;99.90
51839;DHT22;37886;53.174;6.368;2022-07-23T03:25:13;12.10;99.90
51839;DHT22;37886;53.174;6.368;2022-07-23T03:27:38;12.20;99.90
51839;DHT22;37886;53.174;6.368;2022-07-23T03:30:05;12.20;99.90
51839;DHT22;37886;53.174;6.368;2022-07-23T03:32:30;12.30;99.90
51839;DHT22;37886;53.174;6.368;2022-07-23T03:34:57;12.40;99.90
51839;DHT22;37886;53.174;6.368;2022-07-23T03:37:22;12.40;99.90
51839;DHT22;37886;53.174;6.368;2022-07-23T03:39:48;12.40;99.90
51839;DHT22;37886;53.174;6.368;2022-07-23T03:42:14;12.50;99.90
51839;DHT22;37886;53.174;6.368;2022-07-23T03:44:40;12.50;99.90
51839;DHT22;37886;53.174;6.368;2022-07-23T03:47:05;12.60;99.90
51839;DHT22;37886;53.174;6.368;2022-07-23T03:49:31;12.60;99.90
51839;DHT22;37886;53.174;6.368;2022-07-23T03:51:57;12.60;99.90
51839;DHT22;37886;53.174;6.368;2022-07-23T03:54:23;12.70;99.90
51839;DHT22;37886;53.174;6.368;2022-07-23T03:56:49;12.70;99.90
51839;DHT22;37886;53.174;6.368;2022-07-23T03:59:15;12.70;99.90
51839;DHT22;37886;53.174;6.368;2022-07-23T04:01:40;12.70;99.90
51839;DHT22;37886;53.174;6.368;2022-07-23T04:04:06;12.70;99.90
51839;DHT22;37886;53.174;6.368;2022-07-23T04:06:34;12.70;99.90
51839;DHT22;37886;53.174;6.368;2022-07-23T04:08:59;12.70;99.90
51839;DHT22;37886;53.174;6.368;2022-07-23T04:11:25;12.70;99.90
51839;DHT22;37886;53.174;6.368;2022-07-23T04:13:51;12.70;99.90
51839;DHT22;37886;53.174;6.368;2022-07-23T04:16:17;12.70;99.90
51839;DHT22;37886;53.174;6.368;2022-07-23T04:18:43;12.80;99.90
51839;DHT22;37886;53.174;6.368;2022-07-23T04:21:08;12.80;99.90
51839;DHT22;37886;53.174;6.368;2022-07-23T04:23:34;12.90;99.90
51839;DHT22;37886;53.174;6.368;2022-07-23T04:26:00;12.90;99.90
51839;DHT22;37886;53.174;6.368;2022-07-23T04:28:26;13.00;99.90
51839;DHT22;37886;53.174;6.368;2022-07-23T04:30:51;13.00;99.90
51839;DHT22;37886;53.174;6.368;2022-07-23T04:33:17;13.00;99.90
51839;DHT22;37886;53.174;6.368;2022-07-23T04:35:43;13.10;99.90
51839;DHT22;37886;53.174;6.368;2022-07-23T04:38:09;13.20;99.90
51839;DHT22;37886;53.174;6.368;2022-07-23T04:40:34;13.20;99.90
51839;DHT22;37886;53.174;6.368;2022-07-23T04:43:00;13.30;99.90
51839;DHT22;37886;53.174;6.368;2022-07-23T04:45:26;13.30;99.90
51839;DHT22;37886;53.174;6.368;2022-07-23T04:47:52;13.40;99.90
51839;DHT22;37886;53.174;6.368;2022-07-23T04:50:18;13.40;99.90
51839;DHT22;37886;53.174;6.368;2022-07-23T04:52:47;13.40;99.90
51839;DHT22;37886;53.174;6.368;2022-07-23T04:55:14;13.40;99.90
51839;DHT22;37886;53.174;6.368;2022-07-23T04:57:40;13.40;99.90
51839;DHT22;37886;53.174;6.368;2022-07-23T05:00:06;13.40;99.90
51839;DHT22;37886;53.174;6.368;2022-07-23T05:02:32;13.40;99.90
51839;DHT22;37886;53.174;6.368;2022-07-23T05:04:58;13.40;99.90
51839;DHT22;37886;53.174;6.368;2022-07-23T05:07:23;13.40;99.90
51839;DHT22;37886;53.174;6.368;2022-07-23T05:09:49;13.40;99.90
51839;DHT22;37886;53.174;6.368;2022-07-23T05:12:15;13.30;99.90
51839;DHT22;37886;53.174;6.368;2022-07-23T05:14:41;13.30;99.90
51839;DHT22;37886;53.174;6.368;2022-07-23T05:17:07;13.20;99.90
51839;DHT22;37886;53.174;6.368;2022-07-23T05:19:34;13.20;99.90
51839;DHT22;37886;53.174;6.368;2022-07-23T05:22:00;13.20;99.90
51839;DHT22;37886;53.174;6.368;2022-07-23T05:24:25;13.30;99.90
51839;DHT22;37886;53.174;6.368;2022-07-23T05:26:51;13.50;99.90
51839;DHT22;37886;53.174;6.368;2022-07-23T05:29:17;14.20;99.90
51839;DHT22;37886;53.174;6.368;2022-07-23T05:31:42;15.70;99.90
51839;DHT22;37886;53.174;6.368;2022-07-23T05:34:08;16.60;99.90
51839;DHT22;37886;53.174;6.368;2022-07-23T05:36:34;17.00;99.90
51839;DHT22;37886;53.174;6.368;2022-07-23T05:39:00;16.30;99.90
51839;DHT22;37886;53.174;6.368;2022-07-23T05:41:26;15.50;99.90
51839;DHT22;37886;53.174;6.368;2022-07-23T05:43:51;15.10;99.90
51839;DHT22;37886;53.174;6.368;2022-07-23T05:46:17;15.00;99.90
51839;DHT22;37886;53.174;6.368;2022-07-23T05:48:43;14.90;99.90
51839;DHT22;37886;53.174;6.368;2022-07-23T05:51:11;14.90;99.90
51839;DHT22;37886;53.174;6.368;2022-07-23T05:53:37;15.00;99.90
51839;DHT22;37886;53.174;6.368;2022-07-23T05:56:04;15.30;99.90
51839;DHT22;37886;53.174;6.368;2022-07-23T05:58:30;15.30;99.90
51839;DHT22;37886;53.174;6.368;2022-07-23T06:00:55;15.30;99.90
51839;DHT22;37886;53.174;6.368;2022-07-23T06:03:21;15.30;99.90
51839;DHT22;37886;53.174;6.368;2022-07-23T06:05:47;15.40;99.90
51839;DHT22;37886;53.174;6.368;2022-07-23T06:08:12;15.60;99.90
51839;DHT22;37886;53.174;6.368;2022-07-23T06:10:38;15.70;99.90
51839;DHT22;37886;53.174;6.368;2022-07-23T06:13:04;15.80;99.90
51839;DHT22;37886;53.174;6.368;2022-07-23T06:15:29;15.80;99.90
51839;DHT22;37886;53.174;6.368;2022-07-23T06:17:56;15.90;99.90
51839;DHT22;37886;53.174;6.368;2022-07-23T06:20:21;16.20;99.90
51839;DHT22;37886;53.174;6.368;2022-07-23T06:22:47;16.20;99.90
51839;DHT22;37886;53.174;6.368;2022-07-23T06:25:13;16.40;99.90
51839;DHT22;37886;53.174;6.368;2022-07-23T06:27:38;16.50;99.90
51839;DHT22;37886;53.174;6.368;2022-07-23T06:30:05;16.60;99.90
51839;DHT22;37886;53.174;6.368;2022-07-23T06:32:31;16.50;99.90
51839;DHT22;37886;53.174;6.368;2022-07-23T06:34:57;16.60;99.90
51839;DHT22;37886;53.174;6.368;2022-07-23T06:37:23;16.60;99.90
51839;DHT22;37886;53.174;6.368;2022-07-23T06:39:48;16.70;99.90
51839;DHT22;37886;53.174;6.368;2022-07-23T06:42:14;16.80;99.90
51839;DHT22;37886;53.174;6.368;2022-07-23T06:44:41;17.20;99.90
51839;DHT22;37886;53.174;6.368;2022-07-23T06:47:07;17.50;99.90
51839;DHT22;37886;53.174;6.368;2022-07-23T06:49:32;17.70;99.90
51839;DHT22;37886;53.174;6.368;2022-07-23T06:51:58;17.80;99.90
51839;DHT22;37886;53.174;6.368;2022-07-23T06:54:24;17.80;99.90
51839;DHT22;37886;53.174;6.368;2022-07-23T06:56:50;17.70;99.90
51839;DHT22;37886;53.174;6.368;2022-07-23T06:59:16;17.70;99.90
51839;DHT22;37886;53.174;6.368;2022-07-23T07:01:41;17.70;99.90
51839;DHT22;37886;53.174;6.368;2022-07-23T07:04:07;17.70;99.90
51839;DHT22;37886;53.174;6.368;2022-07-23T07:06:35;17.60;99.90
51839;DHT22;37886;53.174;6.368;2022-07-23T07:09:01;17.50;99.90
51839;DHT22;37886;53.174;6.368;2022-07-23T07:11:27;17.30;99.90
51839;DHT22;37886;53.174;6.368;2022-07-23T07:13:53;17.30;99.90
51839;DHT22;37886;53.174;6.368;2022-07-23T07:16:19;17.30;99.90
51839;DHT22;37886;53.174;6.368;2022-07-23T07:18:44;17.40;99.90
51839;DHT22;37886;53.174;6.368;2022-07-23T07:21:10;17.40;99.90
51839;DHT22;37886;53.174;6.368;2022-07-23T07:23:36;17.50;99.90
51839;DHT22;37886;53.174;6.368;2022-07-23T07:26:01;17.50;99.90
51839;DHT22;37886;53.174;6.368;2022-07-23T07:28:27;17.70;99.90
51839;DHT22;37886;53.174;6.368;2022-07-23T07:30:53;17.80;99.90
51839;DHT22;37886;53.174;6.368;2022-07-23T07:33:18;18.10;99.90
51839;DHT22;37886;53.174;6.368;2022-07-23T07:35:44;18.30;99.90
51839;DHT22;37886;53.174;6.368;2022-07-23T07:38:10;18.40;99.90
51839;DHT22;37886;53.174;6.368;2022-07-23T07:40:36;18.50;99.90
51839;DHT22;37886;53.174;6.368;2022-07-23T07:43:01;18.40;99.90
51839;DHT22;37886;53.174;6.368;2022-07-23T07:45:29;18.40;99.90
51839;DHT22;37886;53.174;6.368;2022-07-23T07:47:54;18.50;99.90
51839;DHT22;37886;53.174;6.368;2022-07-23T07:50:21;18.60;99.90
51839;DHT22;37886;53.174;6.368;2022-07-23T07:52:46;18.80;99.90
51839;DHT22;37886;53.174;6.368;2022-07-23T07:55:13;19.00;99.90
51839;DHT22;37886;53.174;6.368;2022-07-23T07:57:39;19.30;99.90
51839;DHT22;37886;53.174;6.368;2022-07-23T08:00:06;19.20;99.90
51839;DHT22;37886;53.174;6.368;2022-07-23T08:02:48;19.40;99.90
51839;DHT22;37886;53.174;6.368;2022-07-23T08:05:18;19.30;99.90
51839;DHT22;37886;53.174;6.368;2022-07-23T08:07:43;19.10;99.90
51839;DHT22;37886;53.174;6.368;2022-07-23T08:10:09;19.10;99.90
51839;DHT22;37886;53.174;6.368;2022-07-23T08:12:49;19.20;99.90
51839;DHT22;37886;53.174;6.368;2022-07-23T08:15:18;19.40;99.90
51839;DHT22;37886;53.174;6.368;2022-07-23T08:17:45;19.10;99.90
51839;DHT22;37886;53.174;6.368;2022-07-23T08:20:12;19.20;99.90
51839;DHT22;37886;53.174;6.368;2022-07-23T08:25:12;19.30;99.90
51839;DHT22;37886;53.174;6.368;2022-07-23T08:27:38;19.50;99.90
51839;DHT22;37886;53.174;6.368;2022-07-23T08:30:04;19.90;99.90
51839;DHT22;37886;53.174;6.368;2022-07-23T08:32:30;19.70;99.90
51839;DHT22;37886;53.174;6.368;2022-07-23T08:34:56;19.60;99.90
51839;DHT22;37886;53.174;6.368;2022-07-23T08:37:21;20.40;99.90
51839;DHT22;37886;53.174;6.368;2022-07-23T08:39:47;20.40;99.90
51839;DHT22;37886;53.174;6.368;2022-07-23T08:42:14;20.20;99.90
51839;DHT22;37886;53.174;6.368;2022-07-23T08:44:45;19.80;99.90
51839;DHT22;37886;53.174;6.368;2022-07-23T08:47:12;19.70;99.90
51839;DHT22;37886;53.174;6.368;2022-07-23T08:49:39;19.60;99.90
51839;DHT22;37886;53.174;6.368;2022-07-23T08:52:05;19.40;99.90
51839;DHT22;37886;53.174;6.368;2022-07-23T08:54:31;19.30;99.90
51839;DHT22;37886;53.174;6.368;2022-07-23T08:56:57;19.30;99.90
51839;DHT22;37886;53.174;6.368;2022-07-23T08:59:23;19.30;99.90
51839;DHT22;37886;53.174;6.368;2022-07-23T09:01:49;19.40;99.90
51839;DHT22;37886;53.174;6.368;2022-07-23T09:04:14;19.30;99.90
51839;DHT22;37886;53.174;6.368;2022-07-23T09:06:40;19.50;99.90
51839;DHT22;37886;53.174;6.368;2022-07-23T09:09:26;19.50;99.90
51839;DHT22;37886;53.174;6.368;2022-07-23T09:12:06;19.40;99.90
51839;DHT22;37886;53.174;6.368;2022-07-23T09:14:41;19.10;99.90
51839;DHT22;37886;53.174;6.368;2022-07-23T09:17:12;19.20;99.90
51839;DHT22;37886;53.174;6.368;2022-07-23T09:19:38;19.40;99.90
51839;DHT22;37886;53.174;6.368;2022-07-23T09:22:24;19.40;99.90
51839;DHT22;37886;53.174;6.368;2022-07-23T09:25:15;19.60;99.90
51839;DHT22;37886;53.174;6.368;2022-07-23T09:27:55;19.80;99.90
51839;DHT22;37886;53.174;6.368;2022-07-23T09:30:29;20.10;99.90
51839;DHT22;37886;53.174;6.368;2022-07-23T09:33:12;20.10;99.90
51839;DHT22;37886;53.174;6.368;2022-07-23T09:35:54;20.20;99.90
51839;DHT22;37886;53.174;6.368;2022-07-23T09:38:23;20.50;99.90
51839;DHT22;37886;53.174;6.368;2022-07-23T09:41:09;20.70;99.90
51839;DHT22;37886;53.174;6.368;2022-07-23T09:43:35;20.70;99.90
51839;DHT22;37886;53.174;6.368;2022-07-23T09:46:27;20.50;99.90
51839;DHT22;37886;53.174;6.368;2022-07-23T09:48:54;20.20;99.90
51839;DHT22;37886;53.174;6.368;2022-07-23T09:51:22;20.00;99.90
51839;DHT22;37886;53.174;6.368;2022-07-23T09:54:01;20.20;99.90
51839;DHT22;37886;53.174;6.368;2022-07-23T09:56:28;20.20;99.90
51839;DHT22;37886;53.174;6.368;2022-07-23T09:58:54;20.10;99.90
51839;DHT22;37886;53.174;6.368;2022-07-23T10:01:50;20.20;99.90
51839;DHT22;37886;53.174;6.368;2022-07-23T10:04:18;20.50;99.90
51839;DHT22;37886;53.174;6.368;2022-07-23T10:06:45;20.40;99.90
51839;DHT22;37886;53.174;6.368;2022-07-23T10:09:12;20.40;99.90
51839;DHT22;37886;53.174;6.368;2022-07-23T10:11:42;20.20;99.90
51839;DHT22;37886;53.174;6.368;2022-07-23T10:14:08;20.30;99.90
51839;DHT22;37886;53.174;6.368;2022-07-23T10:16:33;20.60;99.90
51839;DHT22;37886;53.174;6.368;2022-07-23T10:19:00;20.50;99.90
51839;DHT22;37886;53.174;6.368;2022-07-23T10:21:46;20.60;99.90
51839;DHT22;37886;53.174;6.368;2022-07-23T10:26:58;19.90;99.90
51839;DHT22;37886;53.174;6.368;2022-07-23T10:37:49;20.00;99.90
51839;DHT22;37886;53.174;6.368;2022-07-23T10:40:19;20.10;99.90
51839;DHT22;37886;53.174;6.368;2022-07-23T10:42:48;20.30;99.90
51839;DHT22;37886;53.174;6.368;2022-07-23T10:45:32;20.30;99.90
51839;DHT22;37886;53.174;6.368;2022-07-23T10:50:41;20.00;99.90
51839;DHT22;37886;53.174;6.368;2022-07-23T10:53:15;20.00;99.90
51839;DHT22;37886;53.174;6.368;2022-07-23T10:55:48;19.80;99.90
51839;DHT22;37886;53.174;6.368;2022-07-23T10:58:20;19.60;99.90
51839;DHT22;37886;53.174;6.368;2022-07-23T11:00:46;19.70;99.90
51839;DHT22;37886;53.174;6.368;2022-07-23T11:03:32;19.80;99.90
51839;DHT22;37886;53.174;6.368;2022-07-23T11:05:59;20.00;99.90
51839;DHT22;37886;53.174;6.368;2022-07-23T11:08:24;20.20;99.90
51839;DHT22;37886;53.174;6.368;2022-07-23T11:11:10;20.50;99.90
51839;DHT22;37886;53.174;6.368;2022-07-23T11:13:41;20.90;99.90
51839;DHT22;37886;53.174;6.368;2022-07-23T11:16:12;21.10;99.90
51839;DHT22;37886;53.174;6.368;2022-07-23T11:21:40;21.10;99.90
51839;DHT22;37886;53.174;6.368;2022-07-23T11:32:03;21.10;99.90
51839;DHT22;37886;53.174;6.368;2022-07-23T11:34:35;21.60;99.90
51839;DHT22;37886;53.174;6.368;2022-07-23T11:37:03;22.30;99.90
51839;DHT22;37886;53.174;6.368;2022-07-23T11:39:30;22.40;99.90
51839;DHT22;37886;53.174;6.368;2022-07-23T11:41:57;23.10;99.90
51839;DHT22;37886;53.174;6.368;2022-07-23T11:47:03;23.80;99.90
51839;DHT22;37886;53.174;6.368;2022-07-23T11:49:29;23.70;99.90
51839;DHT22;37886;53.174;6.368;2022-07-23T11:54:32;22.70;99.90
51839;DHT22;37886;53.174;6.368;2022-07-23T11:57:00;22.30;99.90
51839;DHT22;37886;53.174;6.368;2022-07-23T11:59:28;22.20;99.90
51839;DHT22;37886;53.174;6.368;2022-07-23T12:01:59;22.10;99.90
51839;DHT22;37886;53.174;6.368;2022-07-23T12:04:29;22.00;99.90
51839;DHT22;37886;53.174;6.368;2022-07-23T12:07:02;22.90;99.90
51839;DHT22;37886;53.174;6.368;2022-07-23T12:09:28;22.50;99.90
51839;DHT22;37886;53.174;6.368;2022-07-23T12:12:00;23.20;99.90
51839;DHT22;37886;53.174;6.368;2022-07-23T12:14:27;24.30;99.90
51839;DHT22;37886;53.174;6.368;2022-07-23T12:17:11;25.10;99.90
51839;DHT22;37886;53.174;6.368;2022-07-23T12:19:37;24.50;98.90
51839;DHT22;37886;53.174;6.368;2022-07-23T12:22:03;23.80;99.90
51839;DHT22;37886;53.174;6.368;2022-07-23T12:24:29;24.50;99.90
51839;DHT22;37886;53.174;6.368;2022-07-23T12:27:13;24.80;99.40
51839;DHT22;37886;53.174;6.368;2022-07-23T12:29:39;24.40;99.50
51839;DHT22;37886;53.174;6.368;2022-07-23T12:32:23;24.20;99.90
51839;DHT22;37886;53.174;6.368;2022-07-23T12:35:30;24.30;98.10
51839;DHT22;37886;53.174;6.368;2022-07-23T12:37:45;24.60;99.70
51839;DHT22;37886;53.174;6.368;2022-07-23T12:40:33;24.50;99.30
51839;DHT22;37886;53.174;6.368;2022-07-23T12:43:06;25.30;97.80
51839;DHT22;37886;53.174;6.368;2022-07-23T12:45:51;24.90;97.70
51839;DHT22;37886;53.174;6.368;2022-07-23T12:51:04;25.40;97.30
51839;DHT22;37886;53.174;6.368;2022-07-23T12:53:37;25.10;96.80
51839;DHT22;37886;53.174;6.368;2022-07-23T12:56:26;24.50;98.00
51839;DHT22;37886;53.174;6.368;2022-07-23T12:59:15;23.90;98.00
51839;DHT22;37886;53.174;6.368;2022-07-23T13:01:55;23.70;99.00
51839;DHT22;37886;53.174;6.368;2022-07-23T13:04:22;24.50;97.70
51839;DHT22;37886;53.174;6.368;2022-07-23T13:06:56;25.00;97.70
51839;DHT22;37886;53.174;6.368;2022-07-23T13:09:30;25.50;97.20
51839;DHT22;37886;53.174;6.368;2022-07-23T13:11:56;25.40;96.80
51839;DHT22;37886;53.174;6.368;2022-07-23T13:14:23;25.40;96.90
51839;DHT22;37886;53.174;6.368;2022-07-23T13:16:51;25.70;96.80
51839;DHT22;37886;53.174;6.368;2022-07-23T13:19:17;26.10;96.50
51839;DHT22;37886;53.174;6.368;2022-07-23T13:21:43;26.00;96.10
51839;DHT22;37886;53.174;6.368;2022-07-23T13:24:10;25.20;96.70
51839;DHT22;37886;53.174;6.368;2022-07-23T13:26:37;24.20;97.70
51839;DHT22;37886;53.174;6.368;2022-07-23T13:29:03;24.70;97.20
51839;DHT22;37886;53.174;6.368;2022-07-23T13:31:29;24.60;97.20
51839;DHT22;37886;53.174;6.368;2022-07-23T13:33:54;24.40;97.20
51839;DHT22;37886;53.174;6.368;2022-07-23T13:36:20;24.60;97.20
51839;DHT22;37886;53.174;6.368;2022-07-23T13:38:46;25.50;96.20
51839;DHT22;37886;53.174;6.368;2022-07-23T13:41:11;24.80;96.90
51839;DHT22;37886;53.174;6.368;2022-07-23T13:43:37;24.30;97.40
51839;DHT22;37886;53.174;6.368;2022-07-23T13:46:03;24.30;97.40
51839;DHT22;37886;53.174;6.368;2022-07-23T13:48:28;23.90;98.20
51839;DHT22;37886;53.174;6.368;2022-07-23T13:50:54;23.80;98.20
51839;DHT22;37886;53.174;6.368;2022-07-23T13:53:22;23.70;98.00
51839;DHT22;37886;53.174;6.368;2022-07-23T13:55:49;23.40;98.10
51839;DHT22;37886;53.174;6.368;2022-07-23T13:58:16;23.60;98.20
51839;DHT22;37886;53.174;6.368;2022-07-23T14:00:45;23.70;98.30
51839;DHT22;37886;53.174;6.368;2022-07-23T14:03:11;24.00;98.20
51839;DHT22;37886;53.174;6.368;2022-07-23T14:05:37;25.20;97.10
51839;DHT22;37886;53.174;6.368;2022-07-23T14:08:03;25.20;97.10
51839;DHT22;37886;53.174;6.368;2022-07-23T14:10:29;24.60;97.30
51839;DHT22;37886;53.174;6.368;2022-07-23T14:12:55;25.10;97.50
51839;DHT22;37886;53.174;6.368;2022-07-23T14:15:25;25.80;96.50
51839;DHT22;37886;53.174;6.368;2022-07-23T14:17:53;25.80;96.00
51839;DHT22;37886;53.174;6.368;2022-07-23T14:20:19;25.00;96.80
51839;DHT22;37886;53.174;6.368;2022-07-23T14:22:45;24.40;97.60
51839;DHT22;37886;53.174;6.368;2022-07-23T14:25:11;24.50;97.60
51839;DHT22;37886;53.174;6.368;2022-07-23T14:27:37;24.30;97.20
51839;DHT22;37886;53.174;6.368;2022-07-23T14:30:04;24.00;97.80
51839;DHT22;37886;53.174;6.368;2022-07-23T14:32:30;23.90;97.90
51839;DHT22;37886;53.174;6.368;2022-07-23T14:34:56;23.60;98.50
51839;DHT22;37886;53.174;6.368;2022-07-23T14:37:21;23.70;98.40
51839;DHT22;37886;53.174;6.368;2022-07-23T14:39:47;23.80;98.30
51839;DHT22;37886;53.174;6.368;2022-07-23T14:42:13;23.80;98.50
51839;DHT22;37886;53.174;6.368;2022-07-23T14:44:39;23.60;98.60
51839;DHT22;37886;53.174;6.368;2022-07-23T14:47:05;24.30;97.50
51839;DHT22;37886;53.174;6.368;2022-07-23T14:49:32;23.80;98.00
51839;DHT22;37886;53.174;6.368;2022-07-23T14:51:58;24.20;98.10
51839;DHT22;37886;53.174;6.368;2022-07-23T14:54:25;24.20;97.80
51839;DHT22;37886;53.174;6.368;2022-07-23T14:56:53;24.20;98.10
51839;DHT22;37886;53.174;6.368;2022-07-23T14:59:19;24.90;97.40
51839;DHT22;37886;53.174;6.368;2022-07-23T15:01:45;25.00;96.80
51839;DHT22;37886;53.174;6.368;2022-07-23T15:04:10;25.20;96.70
51839;DHT22;37886;53.174;6.368;2022-07-23T15:06:36;26.00;96.30
51839;DHT22;37886;53.174;6.368;2022-07-23T15:09:04;26.30;96.00
51839;DHT22;37886;53.174;6.368;2022-07-23T15:11:30;27.00;95.60
51839;DHT22;37886;53.174;6.368;2022-07-23T15:14:03;27.10;95.00
51839;DHT22;37886;53.174;6.368;2022-07-23T15:16:29;26.30;95.20
51839;DHT22;37886;53.174;6.368;2022-07-23T15:18:55;25.50;95.70
51839;DHT22;37886;53.174;6.368;2022-07-23T15:21:21;25.00;96.30
51839;DHT22;37886;53.174;6.368;2022-07-23T15:23:47;25.00;96.50
51839;DHT22;37886;53.174;6.368;2022-07-23T15:26:12;26.10;95.60
51839;DHT22;37886;53.174;6.368;2022-07-23T15:28:41;25.80;95.50
51839;DHT22;37886;53.174;6.368;2022-07-23T15:31:07;25.40;96.10
51839;DHT22;37886;53.174;6.368;2022-07-23T15:33:33;26.20;95.80
51839;DHT22;37886;53.174;6.368;2022-07-23T15:36:00;26.70;95.20
51839;DHT22;37886;53.174;6.368;2022-07-23T15:38:26;27.00;94.90
51839;DHT22;37886;53.174;6.368;2022-07-23T15:40:56;27.00;94.60
51839;DHT22;37886;53.174;6.368;2022-07-23T15:43:23;26.50;94.60
51839;DHT22;37886;53.174;6.368;2022-07-23T15:45:49;25.50;95.60
51839;DHT22;37886;53.174;6.368;2022-07-23T15:48:16;25.40;96.40
51839;DHT22;37886;53.174;6.368;2022-07-23T15:50:43;25.40;95.80
51839;DHT22;37886;53.174;6.368;2022-07-23T15:53:08;25.70;95.70
51839;DHT22;37886;53.174;6.368;2022-07-23T15:55:34;25.40;96.10
51839;DHT22;37886;53.174;6.368;2022-07-23T15:58:01;25.00;96.90
51839;DHT22;37886;53.174;6.368;2022-07-23T16:00:27;25.30;96.40
51839;DHT22;37886;53.174;6.368;2022-07-23T16:02:52;25.70;95.90
51839;DHT22;37886;53.174;6.368;2022-07-23T16:05:18;25.60;96.20
51839;DHT22;37886;53.174;6.368;2022-07-23T16:07:44;25.40;96.20